createdAt,value
2022-09-25T00:00:18.952Z,0
2022-09-25T00:01:22.481Z,0
2022-09-25T00:02:26.138Z,0
2022-09-25T00:03:29.658Z,0
2022-09-25T00:04:32.850Z,0
2022-09-25T00:05:35.960Z,0
2022-09-25T00:06:38.977Z,0
2022-09-25T00:07:41.568Z,0
2022-09-25T00:08:45.197Z,0
2022-09-25T00:09:47.718Z,0
2022-09-25T00:10:50.804Z,0
2022-09-25T00:11:53.628Z,0
2022-09-25T00:12:56.708Z,0
2022-09-25T00:13:59.430Z,0
2022-09-25T00:15:02.199Z,0
2022-09-25T00:16:06.000Z,0
2022-09-25T00:17:08.976Z,0
2022-09-25T00:18:12.292Z,0
2022-09-25T00:19:15.415Z,0
2022-09-25T00:20:18.104Z,0
2022-09-25T00:21:21.452Z,0
2022-09-25T00:22:24.453Z,0
2022-09-25T00:23:27.894Z,0
2022-09-25T00:24:31.308Z,0
2022-09-25T00:25:34.558Z,0
2022-09-25T00:26:38.024Z,0
2022-09-25T00:27:41.106Z,0
2022-09-25T00:28:44.470Z,0
2022-09-25T00:29:47.325Z,0
2022-09-25T00:30:50.249Z,0
2022-09-25T00:31:54.568Z,0
2022-09-25T00:32:58.028Z,0
2022-09-25T00:34:01.107Z,0
2022-09-25T00:35:04.359Z,0
2022-09-25T00:36:07.455Z,0
2022-09-25T00:37:10.049Z,0
2022-09-25T00:38:13.142Z,0
2022-09-25T00:39:16.219Z,0
2022-09-25T00:40:19.274Z,0
2022-09-25T00:41:22.092Z,0
2022-09-25T00:42:24.778Z,0
2022-09-25T00:43:28.126Z,0
2022-09-25T00:44:31.115Z,0
2022-09-25T00:45:34.184Z,0
2022-09-25T00:46:37.020Z,0
2022-09-25T00:47:41.515Z,0
2022-09-25T00:48:44.647Z,0
2022-09-25T00:49:48.027Z,0
2022-09-25T00:50:50.260Z,0
2022-09-25T00:51:54.908Z,0
2022-09-25T00:52:57.486Z,0
2022-09-25T00:54:00.951Z,0
2022-09-25T00:55:04.907Z,0
2022-09-25T00:56:08.522Z,0
2022-09-25T00:57:11.680Z,0
2022-09-25T00:58:14.482Z,0
2022-09-25T00:59:17.273Z,0
2022-09-25T01:00:19.679Z,0
2022-09-25T01:01:22.842Z,0
2022-09-25T01:02:26.532Z,0
2022-09-25T01:03:31.056Z,0
2022-09-25T01:04:34.610Z,0
2022-09-25T01:05:38.276Z,0
2022-09-25T01:06:41.619Z,0
2022-09-25T01:07:44.720Z,0
2022-09-25T01:08:48.066Z,0
2022-09-25T01:09:51.358Z,0
2022-09-25T01:10:54.355Z,0
2022-09-25T01:11:57.444Z,0
2022-09-25T01:13:00.525Z,0
2022-09-25T01:14:03.266Z,0
2022-09-25T01:15:06.564Z,0
2022-09-25T01:16:09.809Z,0
2022-09-25T01:17:13.130Z,0
2022-09-25T01:18:16.935Z,0
2022-09-25T01:19:20.459Z,0
2022-09-25T01:20:23.863Z,0
2022-09-25T01:21:26.747Z,0
2022-09-25T01:22:29.626Z,0
2022-09-25T01:23:33.342Z,0
2022-09-25T01:24:35.779Z,0
2022-09-25T01:25:41.562Z,0
2022-09-25T01:26:44.191Z,0
2022-09-25T01:27:47.265Z,0
2022-09-25T01:28:50.050Z,0
2022-09-25T01:29:53.145Z,0
2022-09-25T01:30:55.922Z,0
2022-09-25T01:31:59.381Z,0
2022-09-25T01:33:01.798Z,0
2022-09-25T01:34:04.810Z,0
2022-09-25T01:35:08.800Z,0
2022-09-25T01:36:11.985Z,0
2022-09-25T01:37:15.461Z,0
2022-09-25T01:38:18.528Z,0
2022-09-25T01:39:21.966Z,0
2022-09-25T01:40:24.729Z,0
2022-09-25T01:41:27.923Z,0
2022-09-25T01:42:30.078Z,0
2022-09-25T01:43:34.076Z,0
2022-09-25T01:44:37.146Z,0
2022-09-25T01:45:39.740Z,0
2022-09-25T01:46:43.861Z,0
2022-09-25T01:47:46.592Z,0
2022-09-25T01:48:50.042Z,0
2022-09-25T01:49:53.524Z,0
2022-09-25T01:50:57.405Z,0
2022-09-25T01:52:00.430Z,0
2022-09-25T01:53:03.236Z,0
2022-09-25T01:54:06.749Z,0
2022-09-25T01:55:10.201Z,0
2022-09-25T01:56:13.605Z,0
2022-09-25T01:57:16.427Z,0
2022-09-25T01:58:18.866Z,0
2022-09-25T01:59:21.105Z,0
2022-09-25T02:00:23.713Z,0
2022-09-25T02:01:27.027Z,0
2022-09-25T02:02:29.983Z,0
2022-09-25T02:03:33.527Z,0
2022-09-25T02:04:37.153Z,0
2022-09-25T02:05:40.669Z,0
2022-09-25T02:06:44.446Z,0
2022-09-25T02:07:47.961Z,0
2022-09-25T02:08:51.402Z,0
2022-09-25T02:09:54.188Z,0
2022-09-25T02:10:57.345Z,0
2022-09-25T02:12:00.213Z,0
2022-09-25T02:13:03.747Z,0
2022-09-25T02:14:06.881Z,0
2022-09-25T02:15:10.377Z,0
2022-09-25T02:16:13.035Z,0
2022-09-25T02:17:17.194Z,0
2022-09-25T02:18:19.708Z,0
2022-09-25T02:19:21.956Z,0
2022-09-25T02:20:25.684Z,0
2022-09-25T02:21:28.881Z,0
2022-09-25T02:22:32.469Z,0
2022-09-25T02:23:35.349Z,0
2022-09-25T02:24:38.784Z,0
2022-09-25T02:25:41.787Z,0
2022-09-25T02:26:44.392Z,0
2022-09-25T02:27:47.468Z,0
2022-09-25T02:28:50.657Z,0
2022-09-25T02:29:53.928Z,0
2022-09-25T02:30:57.160Z,0
2022-09-25T02:32:00.385Z,0
2022-09-25T02:33:03.453Z,0
2022-09-25T02:34:10.707Z,0
2022-09-25T02:35:20.008Z,0
2022-09-25T02:36:22.889Z,0
2022-09-25T02:37:25.629Z,0
2022-09-25T02:38:28.857Z,0
2022-09-25T02:39:31.967Z,0
2022-09-25T02:40:34.889Z,0
2022-09-25T02:41:38.098Z,0
2022-09-25T02:42:41.447Z,0
2022-09-25T02:43:43.965Z,0
2022-09-25T02:44:46.592Z,0
2022-09-25T02:45:49.420Z,0
2022-09-25T02:46:52.660Z,0
2022-09-25T02:47:56.785Z,0
2022-09-25T02:48:59.102Z,0
2022-09-25T02:50:02.614Z,0
2022-09-25T02:51:05.321Z,0
2022-09-25T02:52:08.386Z,0
2022-09-25T02:53:11.490Z,0
2022-09-25T02:54:15.013Z,0
2022-09-25T02:55:18.483Z,0
2022-09-25T02:56:21.045Z,0
2022-09-25T02:57:24.113Z,0
2022-09-25T02:58:27.539Z,0
2022-09-25T02:59:30.597Z,0
2022-09-25T03:00:33.775Z,0
2022-09-25T03:01:36.624Z,0
2022-09-25T03:02:39.956Z,0
2022-09-25T03:03:43.823Z,0
2022-09-25T03:04:46.716Z,0
2022-09-25T03:05:49.358Z,0
2022-09-25T03:06:52.161Z,0
2022-09-25T03:07:55.592Z,0
2022-09-25T03:08:58.471Z,0
2022-09-25T03:10:02.532Z,0
2022-09-25T03:11:06.010Z,0
2022-09-25T03:12:08.878Z,0
2022-09-25T03:13:11.780Z,0
2022-09-25T03:14:15.197Z,0
2022-09-25T03:15:18.180Z,0
2022-09-25T03:16:21.658Z,0
2022-09-25T03:17:24.662Z,0
2022-09-25T03:18:28.382Z,0
2022-09-25T03:19:31.445Z,0
2022-09-25T03:20:34.048Z,0
2022-09-25T03:21:36.844Z,0
2022-09-25T03:22:39.913Z,0
2022-09-25T03:23:42.987Z,0
2022-09-25T03:24:45.794Z,0
2022-09-25T03:25:50.232Z,0
2022-09-25T03:26:53.955Z,0
2022-09-25T03:27:57.049Z,0
2022-09-25T03:28:59.910Z,0
2022-09-25T03:30:03.059Z,0
2022-09-25T03:31:06.531Z,0
2022-09-25T03:32:10.760Z,0
2022-09-25T03:33:13.314Z,0
2022-09-25T03:34:16.340Z,0
2022-09-25T03:35:18.865Z,0
2022-09-25T03:36:22.595Z,0
2022-09-25T03:37:27.584Z,0
2022-09-25T03:38:30.292Z,0
2022-09-25T03:39:33.495Z,0
2022-09-25T03:40:36.164Z,0
2022-09-25T03:41:40.762Z,0
2022-09-25T03:42:43.905Z,0
2022-09-25T03:43:46.333Z,0
2022-09-25T03:44:49.313Z,0
2022-09-25T03:45:52.116Z,0
2022-09-25T03:46:56.163Z,0
2022-09-25T03:47:58.431Z,0
2022-09-25T03:49:01.220Z,0
2022-09-25T03:50:04.490Z,0
2022-09-25T03:51:07.582Z,0
2022-09-25T03:52:10.938Z,0
2022-09-25T03:53:14.570Z,0
2022-09-25T03:54:17.563Z,0
2022-09-25T03:55:20.640Z,0
2022-09-25T03:56:23.489Z,0
2022-09-25T03:57:27.011Z,0
2022-09-25T03:58:30.479Z,0
2022-09-25T03:59:33.214Z,0
2022-09-25T04:00:36.731Z,0
2022-09-25T04:01:39.630Z,0
2022-09-25T04:02:43.044Z,0
2022-09-25T04:03:46.774Z,0
2022-09-25T04:04:49.990Z,0
2022-09-25T04:05:52.868Z,0
2022-09-25T04:06:55.939Z,0
2022-09-25T04:07:58.265Z,0
2022-09-25T04:09:01.329Z,0
2022-09-25T04:10:03.856Z,0
2022-09-25T04:11:06.648Z,0
2022-09-25T04:12:09.834Z,0
2022-09-25T04:13:13.787Z,0
2022-09-25T04:14:16.805Z,0
2022-09-25T04:15:19.998Z,0
2022-09-25T04:16:22.913Z,0
2022-09-25T04:17:26.422Z,0
2022-09-25T04:18:29.155Z,0
2022-09-25T04:19:31.998Z,0
2022-09-25T04:20:35.142Z,0
2022-09-25T04:21:38.206Z,0
2022-09-25T04:22:40.714Z,0
2022-09-25T04:23:44.455Z,0
2022-09-25T04:24:47.342Z,0
2022-09-25T04:25:50.820Z,0
2022-09-25T04:26:53.263Z,0
2022-09-25T04:27:56.553Z,0
2022-09-25T04:29:00.342Z,0
2022-09-25T04:30:04.364Z,0
2022-09-25T04:31:07.443Z,0
2022-09-25T04:32:10.604Z,0
2022-09-25T04:33:13.859Z,0
2022-09-25T04:34:17.307Z,0
2022-09-25T04:35:20.669Z,0
2022-09-25T04:36:23.825Z,0
2022-09-25T04:37:27.309Z,0
2022-09-25T04:38:29.470Z,0
2022-09-25T04:39:32.429Z,4
2022-09-25T04:40:36.476Z,4
2022-09-25T04:41:39.943Z,0
2022-09-25T04:42:43.183Z,4
2022-09-25T04:43:46.656Z,4
2022-09-25T04:44:50.335Z,4
2022-09-25T04:45:53.806Z,4
2022-09-25T04:46:57.322Z,8
2022-09-25T04:48:00.316Z,8
2022-09-25T04:49:03.833Z,8
2022-09-25T04:50:06.833Z,12
2022-09-25T04:51:10.206Z,12
2022-09-25T04:52:13.407Z,12
2022-09-25T04:53:16.198Z,12
2022-09-25T04:54:19.874Z,16
2022-09-25T04:55:22.579Z,16
2022-09-25T04:56:25.444Z,16
2022-09-25T04:57:53.867Z,20
2022-09-25T04:59:02.653Z,24
2022-09-25T05:00:06.347Z,28
2022-09-25T05:01:09.580Z,32
2022-09-25T05:02:12.942Z,32
2022-09-25T05:03:16.430Z,36
2022-09-25T05:04:20.253Z,40
2022-09-25T05:05:23.123Z,44
2022-09-25T05:06:26.014Z,48
2022-09-25T05:07:29.091Z,56
2022-09-25T05:08:32.157Z,68
2022-09-25T05:09:35.506Z,72
2022-09-25T05:10:38.021Z,80
2022-09-25T05:11:40.632Z,92
2022-09-25T05:12:43.968Z,96
2022-09-25T05:13:46.965Z,100
2022-09-25T05:14:49.989Z,104
2022-09-25T05:15:53.547Z,116
2022-09-25T05:16:57.050Z,120
2022-09-25T05:17:59.841Z,128
2022-09-25T05:19:02.927Z,132
2022-09-25T05:20:05.641Z,148
2022-09-25T05:21:08.709Z,164
2022-09-25T05:22:11.806Z,168
2022-09-25T05:23:14.988Z,188
2022-09-25T05:24:19.003Z,216
2022-09-25T05:25:21.791Z,228
2022-09-25T05:26:24.210Z,256
2022-09-25T05:27:26.750Z,244
2022-09-25T05:28:29.270Z,244
2022-09-25T05:29:32.269Z,252
2022-09-25T05:30:35.715Z,268
2022-09-25T05:31:39.721Z,284
2022-09-25T05:32:43.394Z,312
2022-09-25T05:33:46.762Z,312
2022-09-25T05:34:49.818Z,324
2022-09-25T05:35:52.611Z,316
2022-09-25T05:36:55.277Z,344
2022-09-25T05:37:58.637Z,332
2022-09-25T05:39:01.437Z,336
2022-09-25T05:40:04.591Z,356
2022-09-25T05:41:07.745Z,376
2022-09-25T05:42:10.983Z,376
2022-09-25T05:43:13.958Z,376
2022-09-25T05:44:16.746Z,380
2022-09-25T05:45:20.445Z,408
2022-09-25T05:46:22.951Z,428
2022-09-25T05:47:26.709Z,432
2022-09-25T05:48:30.172Z,440
2022-09-25T05:49:33.321Z,488
2022-09-25T05:50:36.151Z,516
2022-09-25T05:51:39.138Z,520
2022-09-25T05:52:42.022Z,560
2022-09-25T05:53:45.198Z,616
2022-09-25T05:54:48.143Z,612
2022-09-25T05:55:51.143Z,644
2022-09-25T05:56:53.725Z,672
2022-09-25T05:57:56.786Z,692
2022-09-25T05:58:59.663Z,704
2022-09-25T06:00:02.533Z,668
2022-09-25T06:01:05.419Z,672
2022-09-25T06:02:09.124Z,716
2022-09-25T06:03:13.102Z,740
2022-09-25T06:04:17.262Z,728
2022-09-25T06:05:20.406Z,744
2022-09-25T06:06:27.430Z,756
2022-09-25T06:07:30.482Z,768
2022-09-25T06:08:33.930Z,736
2022-09-25T06:09:36.735Z,724
2022-09-25T06:10:39.797Z,712
2022-09-25T06:11:42.862Z,720
2022-09-25T06:12:45.738Z,776
2022-09-25T06:13:52.020Z,816
2022-09-25T06:14:57.409Z,912
2022-09-25T06:16:00.277Z,988
2022-09-25T06:17:03.983Z,1044
2022-09-25T06:18:07.351Z,1128
2022-09-25T06:19:11.233Z,1148
2022-09-25T06:20:16.209Z,1172
2022-09-25T06:21:19.513Z,1208
2022-09-25T06:22:22.585Z,1248
2022-09-25T06:23:25.757Z,1252
2022-09-25T06:24:28.198Z,1264
2022-09-25T06:25:31.372Z,1252
2022-09-25T06:26:35.108Z,1212
2022-09-25T06:27:38.178Z,1172
2022-09-25T06:28:41.271Z,1164
2022-09-25T06:29:44.726Z,1216
2022-09-25T06:30:47.660Z,1268
2022-09-25T06:31:50.974Z,1292
2022-09-25T06:32:53.806Z,1240
2022-09-25T06:33:56.694Z,1188
2022-09-25T06:35:00.460Z,1184
2022-09-25T06:36:03.659Z,1140
2022-09-25T06:37:06.756Z,1180
2022-09-25T06:38:10.224Z,1132
2022-09-25T06:39:12.109Z,1164
2022-09-25T06:40:14.954Z,1148
2022-09-25T06:41:18.823Z,1200
2022-09-25T06:42:21.076Z,1252
2022-09-25T06:43:23.319Z,1252
2022-09-25T06:44:26.405Z,1184
2022-09-25T06:45:29.843Z,1216
2022-09-25T06:46:33.294Z,1248
2022-09-25T06:47:36.507Z,1340
2022-09-25T06:48:39.863Z,1364
2022-09-25T06:49:43.214Z,1416
2022-09-25T06:50:46.814Z,1468
2022-09-25T06:51:50.492Z,1448
2022-09-25T06:52:53.643Z,1552
2022-09-25T06:53:56.355Z,1504
2022-09-25T06:54:58.949Z,1612
2022-09-25T06:56:02.100Z,1516
2022-09-25T06:57:04.566Z,1736
2022-09-25T06:58:08.266Z,1864
2022-09-25T06:59:11.426Z,1856
2022-09-25T07:00:14.335Z,1784
2022-09-25T07:01:16.914Z,1748
2022-09-25T07:02:20.407Z,1708
2022-09-25T07:03:23.968Z,1748
2022-09-25T07:04:26.940Z,1776
2022-09-25T07:05:29.839Z,1780
2022-09-25T07:06:33.701Z,1948
2022-09-25T07:07:36.875Z,1924
2022-09-25T07:08:40.349Z,1892
2022-09-25T07:09:43.506Z,1884
2022-09-25T07:10:46.574Z,1844
2022-09-25T07:11:49.440Z,1800
2022-09-25T07:12:52.732Z,1796
2022-09-25T07:13:55.705Z,1856
2022-09-25T07:14:58.798Z,1812
2022-09-25T07:16:01.428Z,1944
2022-09-25T07:17:04.934Z,2092
2022-09-25T07:18:07.354Z,2140
2022-09-25T07:19:10.823Z,2144
2022-09-25T07:20:14.002Z,2256
2022-09-25T07:21:17.318Z,2380
2022-09-25T07:22:21.001Z,2544
2022-09-25T07:23:24.391Z,2788
2022-09-25T07:24:27.193Z,2936
2022-09-25T07:25:30.005Z,2880
2022-09-25T07:26:33.737Z,2988
2022-09-25T07:27:44.923Z,3148
2022-09-25T07:28:48.222Z,3240
2022-09-25T07:29:51.550Z,3312
2022-09-25T07:30:53.879Z,3456
2022-09-25T07:31:57.532Z,3664
2022-09-25T07:33:00.441Z,4004
2022-09-25T07:34:03.164Z,4320
2022-09-25T07:35:06.214Z,4188
2022-09-25T07:36:09.864Z,4160
2022-09-25T07:37:12.673Z,3940
2022-09-25T07:38:16.923Z,4048
2022-09-25T07:39:20.304Z,4116
2022-09-25T07:40:23.563Z,4124
2022-09-25T07:41:27.673Z,4204
2022-09-25T07:42:31.187Z,3820
2022-09-25T07:43:34.544Z,3708
2022-09-25T07:44:38.629Z,3448
2022-09-25T07:45:51.814Z,3304
2022-09-25T07:46:55.559Z,3204
2022-09-25T07:47:58.052Z,3308
2022-09-25T07:49:00.322Z,3272
2022-09-25T07:50:02.930Z,3236
2022-09-25T07:51:06.301Z,3336
2022-09-25T07:52:09.235Z,3676
2022-09-25T07:53:12.497Z,3888
2022-09-25T07:54:16.547Z,4024
2022-09-25T07:55:19.686Z,4116
2022-09-25T07:56:23.136Z,4112
2022-09-25T07:57:26.318Z,4084
2022-09-25T07:58:29.416Z,4268
2022-09-25T07:59:31.855Z,4252
2022-09-25T08:00:35.013Z,4240
2022-09-25T08:01:42.740Z,4140
2022-09-25T08:02:56.746Z,4144
2022-09-25T08:04:00.495Z,3968
2022-09-25T08:05:03.490Z,4168
2022-09-25T08:06:06.946Z,4124
2022-09-25T08:07:09.377Z,3964
2022-09-25T08:08:11.735Z,4192
2022-09-25T08:09:14.660Z,4848
2022-09-25T08:10:18.621Z,5376
2022-09-25T08:11:21.647Z,6068
2022-09-25T08:12:25.044Z,6472
2022-09-25T08:13:27.846Z,6640
2022-09-25T08:14:30.914Z,6492
2022-09-25T08:15:33.641Z,6552
2022-09-25T08:16:37.837Z,6384
2022-09-25T08:17:40.349Z,6220
2022-09-25T08:18:43.140Z,5668
2022-09-25T08:19:45.938Z,5740
2022-09-25T08:20:49.282Z,5572
2022-09-25T08:21:52.721Z,5200
2022-09-25T08:22:55.320Z,5204
2022-09-25T08:23:58.121Z,5420
2022-09-25T08:25:01.587Z,5296
2022-09-25T08:26:05.390Z,5268
2022-09-25T08:27:08.605Z,5264
2022-09-25T08:28:12.128Z,5176
2022-09-25T08:29:14.928Z,5328
2022-09-25T08:30:17.997Z,5228
2022-09-25T08:31:21.423Z,5400
2022-09-25T08:32:24.479Z,5352
2022-09-25T08:33:27.565Z,5508
2022-09-25T08:34:46.834Z,5292
2022-09-25T08:35:51.839Z,5088
2022-09-25T08:36:54.833Z,4824
2022-09-25T08:37:57.714Z,4768
2022-09-25T08:39:00.522Z,4456
2022-09-25T08:40:03.421Z,4460
2022-09-25T08:41:06.583Z,4640
2022-09-25T08:42:10.511Z,4312
2022-09-25T08:43:13.699Z,4224
2022-09-25T08:44:16.187Z,4268
2022-09-25T08:45:22.376Z,4284
2022-09-25T08:46:25.922Z,4436
2022-09-25T08:47:29.903Z,4396
2022-09-25T08:48:33.378Z,4396
2022-09-25T08:49:36.257Z,4500
2022-09-25T08:50:38.900Z,4264
2022-09-25T08:51:42.646Z,3948
2022-09-25T08:52:45.145Z,3924
2022-09-25T08:53:47.847Z,4012
2022-09-25T08:54:50.071Z,3932
2022-09-25T08:55:52.938Z,3744
2022-09-25T08:56:56.365Z,3620
2022-09-25T08:57:59.649Z,3704
2022-09-25T08:59:02.947Z,3656
2022-09-25T09:00:06.011Z,3812
2022-09-25T09:01:08.849Z,4160
2022-09-25T09:02:11.865Z,4124
2022-09-25T09:03:15.711Z,4196
2022-09-25T09:04:18.978Z,3964
2022-09-25T09:05:21.778Z,3888
2022-09-25T09:06:24.952Z,3784
2022-09-25T09:07:28.647Z,3684
2022-09-25T09:08:31.679Z,3676
2022-09-25T09:09:34.868Z,3652
2022-09-25T09:10:37.752Z,3516
2022-09-25T09:11:40.884Z,3520
2022-09-25T09:12:44.064Z,3544
2022-09-25T09:13:48.129Z,3628
2022-09-25T09:14:51.243Z,3488
2022-09-25T09:15:54.001Z,3520
2022-09-25T09:16:57.678Z,3456
2022-09-25T09:18:01.198Z,3384
2022-09-25T09:19:04.716Z,3188
2022-09-25T09:20:07.578Z,3128
2022-09-25T09:21:10.465Z,3008
2022-09-25T09:22:14.483Z,3164
2022-09-25T09:23:17.294Z,3084
2022-09-25T09:24:20.080Z,3028
2022-09-25T09:25:23.072Z,2964
2022-09-25T09:26:26.252Z,2884
2022-09-25T09:27:28.965Z,2792
2022-09-25T09:28:32.403Z,2856
2022-09-25T09:29:36.013Z,3084
2022-09-25T09:30:39.216Z,3116
2022-09-25T09:31:41.983Z,3224
2022-09-25T09:32:45.455Z,3076
2022-09-25T09:33:47.416Z,3016
2022-09-25T09:35:07.201Z,2912
2022-09-25T09:36:10.794Z,2776
2022-09-25T09:37:14.041Z,2708
2022-09-25T09:38:17.141Z,2668
2022-09-25T09:39:19.919Z,2740
2022-09-25T09:40:22.700Z,2820
2022-09-25T09:41:26.084Z,2836
2022-09-25T09:42:28.875Z,2864
2022-09-25T09:43:31.451Z,2844
2022-09-25T09:44:34.036Z,2940
2022-09-25T09:45:37.831Z,2932
2022-09-25T09:46:41.362Z,2888
2022-09-25T09:47:44.460Z,2932
2022-09-25T09:48:47.981Z,3024
2022-09-25T09:49:50.975Z,3128
2022-09-25T09:50:54.483Z,3288
2022-09-25T09:51:56.585Z,3524
2022-09-25T09:52:59.303Z,3944
2022-09-25T09:54:02.652Z,4296
2022-09-25T09:55:05.981Z,4680
2022-09-25T09:56:09.451Z,4760
2022-09-25T09:57:12.270Z,4812
2022-09-25T09:58:16.450Z,5072
2022-09-25T09:59:19.820Z,4900
2022-09-25T10:00:23.627Z,4740
2022-09-25T10:01:42.950Z,4524
2022-09-25T10:02:47.539Z,4144
2022-09-25T10:03:51.185Z,3980
2022-09-25T10:04:54.065Z,3864
2022-09-25T10:05:56.826Z,3908
2022-09-25T10:06:59.277Z,4096
2022-09-25T10:08:02.450Z,4616
2022-09-25T10:09:05.815Z,4988
2022-09-25T10:10:08.707Z,5048
2022-09-25T10:11:11.493Z,5108
2022-09-25T10:12:15.222Z,4816
2022-09-25T10:13:18.296Z,4488
2022-09-25T10:14:21.734Z,4232
2022-09-25T10:15:23.784Z,4080
2022-09-25T10:16:26.881Z,4004
2022-09-25T10:17:30.563Z,4116
2022-09-25T10:18:34.313Z,4488
2022-09-25T10:19:37.981Z,4712
2022-09-25T10:20:40.772Z,4840
2022-09-25T10:21:43.769Z,5036
2022-09-25T10:22:46.921Z,5424
2022-09-25T10:23:50.635Z,5808
2022-09-25T10:24:52.802Z,5740
2022-09-25T10:25:56.143Z,5584
2022-09-25T10:26:59.394Z,5176
2022-09-25T10:28:02.467Z,4748
2022-09-25T10:29:05.353Z,4472
2022-09-25T10:30:08.808Z,4272
2022-09-25T10:31:11.652Z,4184
2022-09-25T10:32:15.021Z,4104
2022-09-25T10:33:18.516Z,4064
2022-09-25T10:34:21.618Z,4252
2022-09-25T10:35:24.951Z,4052
2022-09-25T10:36:28.007Z,3856
2022-09-25T10:37:30.828Z,3744
2022-09-25T10:38:34.174Z,3924
2022-09-25T10:39:44.503Z,4192
2022-09-25T10:40:50.829Z,4784
2022-09-25T10:41:54.397Z,5512
2022-09-25T10:42:57.189Z,6368
2022-09-25T10:43:59.903Z,7292
2022-09-25T10:45:03.010Z,7160
2022-09-25T10:46:05.994Z,6876
2022-09-25T10:47:09.452Z,6340
2022-09-25T10:48:12.843Z,5828
2022-09-25T10:49:16.927Z,5472
2022-09-25T10:50:20.200Z,5200
2022-09-25T10:51:23.835Z,5152
2022-09-25T10:52:27.573Z,5200
2022-09-25T10:53:30.460Z,5452
2022-09-25T10:54:33.750Z,5876
2022-09-25T10:55:47.910Z,5676
2022-09-25T10:56:50.972Z,5788
2022-09-25T10:57:52.862Z,7312
2022-09-25T10:58:55.662Z,10348
2022-09-25T10:59:59.026Z,11948
2022-09-25T11:01:02.047Z,12052
2022-09-25T11:02:04.780Z,11116
2022-09-25T11:03:14.140Z,11988
2022-09-25T11:04:21.169Z,12924
2022-09-25T11:05:24.727Z,13516
2022-09-25T11:06:28.075Z,14136
2022-09-25T11:07:31.528Z,14872
2022-09-25T11:08:34.717Z,13664
2022-09-25T11:09:37.514Z,13776
2022-09-25T11:10:39.753Z,13132
2022-09-25T11:11:43.095Z,13720
2022-09-25T11:12:46.488Z,15376
2022-09-25T11:13:49.087Z,16356
2022-09-25T11:14:51.980Z,15984
2022-09-25T11:15:55.102Z,14184
2022-09-25T11:16:58.193Z,13024
2022-09-25T11:18:01.040Z,11988
2022-09-25T11:19:04.860Z,9968
2022-09-25T11:20:09.284Z,8148
2022-09-25T11:21:12.138Z,8684
2022-09-25T11:22:14.748Z,11660
2022-09-25T11:23:17.488Z,14548
2022-09-25T11:24:21.048Z,16876
2022-09-25T11:25:24.519Z,24064
2022-09-25T11:26:27.968Z,52320
2022-09-25T11:27:31.223Z,45888
2022-09-25T11:28:34.507Z,82144
2022-09-25T11:29:37.607Z,50176
2022-09-25T11:30:41.174Z,42816
2022-09-25T11:31:44.103Z,39392
2022-09-25T11:32:51.773Z,27712
2022-09-25T11:33:55.853Z,23072
2022-09-25T11:34:58.932Z,20896
2022-09-25T11:36:02.552Z,18432
2022-09-25T11:37:06.676Z,16860
2022-09-25T11:38:09.943Z,15604
2022-09-25T11:39:12.852Z,14076
2022-09-25T11:40:16.760Z,12584
2022-09-25T11:41:20.339Z,12964
2022-09-25T11:42:24.057Z,17348
2022-09-25T11:43:26.798Z,25184
2022-09-25T11:44:29.865Z,32256
2022-09-25T11:45:32.099Z,26080
2022-09-25T11:46:34.416Z,20864
2022-09-25T11:47:37.590Z,16908
2022-09-25T11:48:40.670Z,17584
2022-09-25T11:49:43.737Z,19776
2022-09-25T11:50:46.531Z,20896
2022-09-25T11:51:50.219Z,20032
2022-09-25T11:52:53.878Z,19712
2022-09-25T11:54:03.267Z,20160
2022-09-25T11:55:43.196Z,21632
2022-09-25T11:56:46.838Z,20896
2022-09-25T11:57:49.754Z,17768
2022-09-25T12:01:09.742Z,14384
2022-09-25T12:02:13.556Z,12952
2022-09-25T12:03:16.465Z,13120
2022-09-25T12:04:18.985Z,14476
2022-09-25T12:05:22.175Z,18192
2022-09-25T12:06:25.336Z,25472
2022-09-25T12:07:29.384Z,32096
2022-09-25T12:08:33.410Z,38752
2022-09-25T12:09:35.839Z,250944
2022-09-25T12:10:38.251Z,84192
2022-09-25T12:11:44.677Z,67008
2022-09-25T12:12:48.555Z,53024
2022-09-25T12:13:50.991Z,38912
2022-09-25T12:14:53.161Z,34784
2022-09-25T12:15:56.319Z,32864
2022-09-25T12:16:59.487Z,33472
2022-09-25T12:18:02.013Z,29952
2022-09-25T12:19:05.098Z,25376
2022-09-25T12:20:08.043Z,21664
2022-09-25T12:21:11.527Z,18168
2022-09-25T12:22:13.494Z,14720
2022-09-25T12:23:17.736Z,13352
2022-09-25T12:24:20.865Z,12908
2022-09-25T12:25:24.007Z,13056
2022-09-25T12:26:27.086Z,12840
2022-09-25T12:27:29.891Z,12744
2022-09-25T12:28:33.290Z,12636
2022-09-25T12:29:36.174Z,12676
2022-09-25T12:30:39.615Z,12492
2022-09-25T12:31:42.770Z,12532
2022-09-25T12:32:46.035Z,12820
2022-09-25T12:33:49.383Z,12880
2022-09-25T12:34:52.215Z,12988
2022-09-25T12:35:55.111Z,13388
2022-09-25T12:36:57.825Z,13836
2022-09-25T12:38:00.974Z,14252
2022-09-25T12:39:04.492Z,15312
2022-09-25T12:40:07.615Z,18944
2022-09-25T12:41:10.955Z,17376
2022-09-25T12:42:13.751Z,16772
2022-09-25T12:43:17.100Z,16920
2022-09-25T12:44:23.674Z,17400
2022-09-25T12:45:30.295Z,17860
2022-09-25T12:46:33.446Z,17668
2022-09-25T12:47:36.426Z,17496
2022-09-25T12:48:39.416Z,17536
2022-09-25T12:49:42.759Z,16960
2022-09-25T12:50:46.101Z,16160
2022-09-25T12:51:48.465Z,14908
2022-09-25T12:52:51.173Z,13036
2022-09-25T12:53:54.270Z,11384
2022-09-25T12:54:58.495Z,9948
2022-09-25T12:56:01.589Z,9424
2022-09-25T12:57:04.488Z,9384
2022-09-25T12:58:07.222Z,8760
2022-09-25T12:59:10.302Z,8388
2022-09-25T13:00:13.666Z,8388
2022-09-25T13:01:16.684Z,8316
2022-09-25T13:02:20.335Z,8332
2022-09-25T13:03:22.868Z,8312
2022-09-25T13:04:26.252Z,8476
2022-09-25T13:05:28.760Z,8916
2022-09-25T13:06:31.433Z,9352
2022-09-25T13:07:34.228Z,9540
2022-09-25T13:08:37.233Z,10736
2022-09-25T13:09:40.032Z,11560
2022-09-25T13:10:43.367Z,11392
2022-09-25T13:11:47.294Z,10064
2022-09-25T13:12:50.011Z,9048
2022-09-25T13:13:53.447Z,7932
2022-09-25T13:14:56.886Z,7364
2022-09-25T13:16:00.131Z,6868
2022-09-25T13:17:03.627Z,6520
2022-09-25T13:18:07.059Z,6128
2022-09-25T13:19:10.502Z,5984
2022-09-25T13:20:13.579Z,6176
2022-09-25T13:21:16.299Z,6724
2022-09-25T13:22:19.745Z,7468
2022-09-25T13:23:22.217Z,8212
2022-09-25T13:24:25.366Z,8296
2022-09-25T13:25:28.183Z,7908
2022-09-25T13:26:32.084Z,7744
2022-09-25T13:27:37.562Z,7804
2022-09-25T13:28:41.094Z,7920
2022-09-25T13:29:44.083Z,8328
2022-09-25T13:30:46.619Z,8856
2022-09-25T13:31:50.958Z,9248
2022-09-25T13:32:53.681Z,9584
2022-09-25T13:33:56.468Z,9824
2022-09-25T13:34:59.456Z,10044
2022-09-25T13:36:02.075Z,10128
2022-09-25T13:37:04.603Z,10048
2022-09-25T13:38:07.024Z,9984
2022-09-25T13:39:10.760Z,9964
2022-09-25T13:40:14.184Z,9796
2022-09-25T13:41:18.263Z,9584
2022-09-25T13:42:21.884Z,9660
2022-09-25T13:43:25.261Z,9904
2022-09-25T13:44:28.250Z,10280
2022-09-25T13:45:31.323Z,10944
2022-09-25T13:46:33.661Z,12020
2022-09-25T13:47:36.760Z,13140
2022-09-25T13:48:39.989Z,14900
2022-09-25T13:49:42.900Z,16532
2022-09-25T13:50:46.059Z,17660
2022-09-25T13:51:48.338Z,16888
2022-09-25T13:52:51.209Z,15564
2022-09-25T13:53:53.925Z,14408
2022-09-25T13:54:56.442Z,13464
2022-09-25T13:55:59.146Z,11728
2022-09-25T13:57:02.025Z,9928
2022-09-25T13:58:05.618Z,9108
2022-09-25T13:59:09.372Z,8144
2022-09-25T14:00:13.011Z,7144
2022-09-25T14:01:16.251Z,6488
2022-09-25T14:02:19.120Z,6168
2022-09-25T14:03:22.791Z,5544
2022-09-25T14:04:26.125Z,5188
2022-09-25T14:05:29.262Z,5180
2022-09-25T14:06:35.650Z,5632
2022-09-25T14:07:42.386Z,6364
2022-09-25T14:08:44.818Z,6528
2022-09-25T14:09:48.270Z,5936
2022-09-25T14:10:51.142Z,5124
2022-09-25T14:11:54.022Z,4768
2022-09-25T14:12:57.087Z,5084
2022-09-25T14:14:09.078Z,5960
2022-09-25T14:15:11.908Z,6156
2022-09-25T14:16:14.084Z,5452
2022-09-25T14:17:17.107Z,5172
2022-09-25T14:18:20.095Z,5048
2022-09-25T14:19:23.188Z,5080
2022-09-25T14:20:26.096Z,5220
2022-09-25T14:21:28.904Z,5600
2022-09-25T14:22:32.002Z,6172
2022-09-25T14:23:35.351Z,6948
2022-09-25T14:24:39.065Z,7892
2022-09-25T14:25:41.656Z,8720
2022-09-25T14:26:44.728Z,9224
2022-09-25T14:27:48.112Z,9360
2022-09-25T14:28:50.825Z,9240
2022-09-25T14:29:54.920Z,8968
2022-09-25T14:30:58.042Z,8524
2022-09-25T14:32:10.068Z,8164
2022-09-25T14:33:57.678Z,7832
2022-09-25T14:35:00.882Z,7756
2022-09-25T14:36:04.153Z,7804